createdAt,value
2023-03-06T00:02:27.033Z,97.50
2023-03-06T00:04:58.684Z,97.50
2023-03-06T00:07:30.157Z,97.50
2023-03-06T00:10:01.315Z,97.50
2023-03-06T00:12:35.253Z,97.60
2023-03-06T00:15:07.136Z,97.50
2023-03-06T00:17:38.089Z,97.70
2023-03-06T00:20:10.968Z,97.70
2023-03-06T00:22:42.328Z,97.80
2023-03-06T00:25:17.184Z,97.80
2023-03-06T00:27:51.112Z,97.70
2023-03-06T00:30:25.186Z,97.70
2023-03-06T00:32:57.442Z,97.80
2023-03-06T00:35:28.572Z,97.90
2023-03-06T00:37:59.975Z,97.80
2023-03-06T00:40:31.199Z,98.10
2023-03-06T00:43:06.200Z,98.00
2023-03-06T00:45:37.432Z,97.80
2023-03-06T00:48:09.007Z,98.10
2023-03-06T00:50:40.105Z,98.10
2023-03-06T00:53:13.477Z,98.00
2023-03-06T00:55:48.063Z,98.30
2023-03-06T00:58:22.017Z,98.10
2023-03-06T01:00:53.179Z,98.10
2023-03-06T01:03:25.709Z,98.10
2023-03-06T01:05:57.221Z,98.30
2023-03-06T01:08:27.780Z,98.20
2023-03-06T01:11:00.990Z,98.30
2023-03-06T01:13:34.471Z,98.40
2023-03-06T01:16:13.994Z,98.30
2023-03-06T01:18:45.219Z,98.30
2023-03-06T01:21:16.971Z,98.30
2023-03-06T01:23:47.846Z,98.30
2023-03-06T01:26:19.193Z,98.60
2023-03-06T01:28:53.034Z,98.30
2023-03-06T01:31:24.339Z,98.40
2023-03-06T01:33:55.427Z,98.40
2023-03-06T01:36:26.545Z,98.30
2023-03-06T01:38:57.017Z,98.30
2023-03-06T01:41:28.612Z,98.50
2023-03-06T01:44:01.673Z,98.30
2023-03-06T01:46:38.996Z,98.70
2023-03-06T01:49:15.033Z,98.60
2023-03-06T01:51:51.655Z,98.50
2023-03-06T01:54:25.698Z,98.50
2023-03-06T01:56:59.977Z,98.50
2023-03-06T01:59:39.266Z,98.60
2023-03-06T02:02:13.628Z,98.60
2023-03-06T02:04:45.410Z,98.70
2023-03-06T02:07:18.552Z,98.80
2023-03-06T02:09:49.613Z,98.80
2023-03-06T02:12:23.350Z,98.90
2023-03-06T02:14:57.005Z,98.90
2023-03-06T02:17:28.558Z,98.90
2023-03-06T02:20:07.347Z,99.10
2023-03-06T02:22:43.116Z,98.90
2023-03-06T02:25:35.508Z,98.90
2023-03-06T02:28:08.286Z,98.90
2023-03-06T02:30:40.281Z,98.90
2023-03-06T02:33:14.001Z,99.00
2023-03-06T02:35:49.881Z,99.00
2023-03-06T02:38:23.868Z,98.90
2023-03-06T02:40:58.951Z,99.00
2023-03-06T02:43:37.455Z,99.00
2023-03-06T02:46:09.136Z,99.10
2023-03-06T02:48:40.559Z,99.20
2023-03-06T02:51:11.726Z,99.20
2023-03-06T02:53:42.843Z,99.40
2023-03-06T02:56:15.879Z,99.50
2023-03-06T02:58:47.087Z,99.70
2023-03-06T03:01:18.130Z,99.60
2023-03-06T03:03:49.825Z,99.60
2023-03-06T03:06:20.838Z,99.70
2023-03-06T03:08:52.206Z,99.60
2023-03-06T03:11:25.841Z,99.60
2023-03-06T03:13:57.391Z,99.50
2023-03-06T03:16:30.959Z,99.60
2023-03-06T03:19:03.255Z,99.60
2023-03-06T03:21:35.305Z,99.70
2023-03-06T03:24:06.577Z,99.80
2023-03-06T03:26:39.991Z,99.80
2023-03-06T03:29:16.846Z,99.80
2023-03-06T03:31:47.582Z,99.80
2023-03-06T03:34:19.162Z,99.80
2023-03-06T03:36:51.053Z,99.80
2023-03-06T03:39:22.351Z,99.80
2023-03-06T03:41:55.810Z,99.90
2023-03-06T03:44:27.711Z,99.70
2023-03-06T03:46:59.000Z,99.60
2023-03-06T03:49:30.224Z,99.70
2023-03-06T03:52:03.105Z,99.70
2023-03-06T03:54:38.517Z,99.70
2023-03-06T03:57:12.035Z,99.80
2023-03-06T03:59:48.515Z,99.60
2023-03-06T04:02:52.108Z,99.70
2023-03-06T04:05:40.232Z,99.70
2023-03-06T04:08:12.486Z,99.60
2023-03-06T04:10:47.063Z,99.60
2023-03-06T04:13:22.897Z,99.70
2023-03-06T04:15:56.602Z,99.70
2023-03-06T04:18:28.729Z,99.70
2023-03-06T04:21:04.024Z,99.70
2023-03-06T04:23:35.284Z,99.80
2023-03-06T04:26:07.975Z,99.70
2023-03-06T04:28:41.427Z,99.60
2023-03-06T04:31:13.727Z,99.60
2023-03-06T04:33:44.798Z,99.60
2023-03-06T04:36:30.088Z,99.80
2023-03-06T04:39:05.497Z,99.70
2023-03-06T04:41:38.398Z,99.80
2023-03-06T04:44:11.577Z,99.80
2023-03-06T04:46:42.796Z,99.90
2023-03-06T04:49:13.516Z,99.90
2023-03-06T04:51:44.642Z,99.80
2023-03-06T04:54:17.391Z,99.80
2023-03-06T04:56:49.743Z,99.90
2023-03-06T04:59:22.771Z,99.90
2023-03-06T05:01:53.877Z,99.90
2023-03-06T05:04:24.403Z,99.90
2023-03-06T05:06:55.620Z,99.90
2023-03-06T05:09:26.481Z,99.80
2023-03-06T05:11:57.707Z,99.80
2023-03-06T05:14:32.583Z,99.90
2023-03-06T05:17:04.185Z,99.80
2023-03-06T05:19:35.258Z,99.70
2023-03-06T05:22:06.968Z,99.80
2023-03-06T05:24:38.217Z,99.70
2023-03-06T05:27:09.536Z,99.70
2023-03-06T05:29:43.033Z,99.70
2023-03-06T05:32:14.485Z,99.80
2023-03-06T05:34:45.548Z,99.70
2023-03-06T05:37:17.428Z,99.70
2023-03-06T05:39:49.019Z,99.80
2023-03-06T05:42:20.344Z,99.60
2023-03-06T05:44:54.151Z,99.50
2023-03-06T05:47:25.508Z,99.50
2023-03-06T05:49:56.459Z,99.50
2023-03-06T05:52:28.009Z,99.50
2023-03-06T05:54:59.663Z,99.50
2023-03-06T05:57:31.212Z,99.40
2023-03-06T06:00:04.808Z,99.50
2023-03-06T06:02:44.659Z,99.40
2023-03-06T06:05:16.429Z,99.20
2023-03-06T06:07:47.775Z,99.20
2023-03-06T06:10:19.135Z,99.00
2023-03-06T06:12:51.382Z,99.00
2023-03-06T06:15:28.226Z,99.00
2023-03-06T06:18:00.195Z,99.00
2023-03-06T06:20:31.561Z,99.00
2023-03-06T06:23:03.220Z,99.00
2023-03-06T06:25:34.233Z,99.00
2023-03-06T06:28:06.798Z,99.20
2023-03-06T06:30:41.184Z,99.10
2023-03-06T06:33:12.889Z,99.10
2023-03-06T06:35:44.027Z,99.20
2023-03-06T06:38:15.373Z,99.10
2023-03-06T06:40:58.413Z,99.10
2023-03-06T06:43:38.097Z,99.00
2023-03-06T06:46:47.169Z,99.10
2023-03-06T06:49:03.323Z,99.00
2023-03-06T06:51:35.555Z,98.70
2023-03-06T06:54:07.193Z,98.70
2023-03-06T06:56:38.549Z,98.40
2023-03-06T06:59:16.601Z,98.30
2023-03-06T07:01:51.656Z,98.20
2023-03-06T07:04:23.462Z,98.10
2023-03-06T07:06:54.399Z,98.00
2023-03-06T07:09:25.870Z,97.90
2023-03-06T07:11:56.806Z,97.70
2023-03-06T07:14:28.470Z,97.70
2023-03-06T07:17:02.206Z,97.50
2023-03-06T07:19:34.543Z,97.20
2023-03-06T07:22:05.666Z,97.10
2023-03-06T07:24:37.717Z,96.90
2023-03-06T07:27:09.627Z,96.90
2023-03-06T07:29:41.270Z,96.90
2023-03-06T07:32:15.668Z,96.70
2023-03-06T07:34:47.866Z,96.50
2023-03-06T07:37:19.391Z,96.30
2023-03-06T07:39:51.019Z,96.10
2023-03-06T07:42:22.443Z,95.90
2023-03-06T07:45:06.912Z,95.80
2023-03-06T07:47:40.598Z,95.60
2023-03-06T07:50:13.481Z,95.30
2023-03-06T07:52:44.339Z,95.20
2023-03-06T07:55:16.714Z,95.30
2023-03-06T07:57:47.758Z,95.30
2023-03-06T08:00:21.182Z,94.90
2023-03-06T08:02:55.211Z,94.90
2023-03-06T08:05:26.928Z,94.60
2023-03-06T08:07:58.073Z,94.50
2023-03-06T08:10:29.822Z,94.20
2023-03-06T08:13:01.821Z,94.10
2023-03-06T08:15:33.515Z,94.10
2023-03-06T08:18:07.195Z,93.90
2023-03-06T08:20:38.586Z,93.80
2023-03-06T08:23:10.019Z,93.70
2023-03-06T08:25:43.465Z,93.40
2023-03-06T08:28:14.491Z,93.40
2023-03-06T08:30:45.975Z,93.40
2023-03-06T08:33:19.591Z,93.30
2023-03-06T08:35:51.566Z,93.30
2023-03-06T08:38:22.713Z,93.30
2023-03-06T08:40:54.514Z,93.00
2023-03-06T08:43:25.522Z,93.00
2023-03-06T08:45:57.267Z,93.10
2023-03-06T08:48:32.909Z,92.70
2023-03-06T08:51:04.530Z,92.70
2023-03-06T08:53:43.276Z,92.60
2023-03-06T08:56:23.351Z,92.60
2023-03-06T08:58:56.134Z,92.30
2023-03-06T09:01:30.574Z,92.10
2023-03-06T09:04:07.121Z,92.00
2023-03-06T09:06:41.076Z,91.90
2023-03-06T09:09:13.290Z,91.90
2023-03-06T09:11:46.671Z,91.80
2023-03-06T09:14:17.966Z,91.90
2023-03-06T09:16:49.745Z,91.80
2023-03-06T09:19:23.492Z,91.60
2023-03-06T09:21:54.850Z,91.50
2023-03-06T09:24:25.838Z,91.30
2023-03-06T09:26:57.241Z,90.80
2023-03-06T09:29:28.300Z,90.60
2023-03-06T09:32:00.134Z,90.80
2023-03-06T09:34:34.477Z,90.30
2023-03-06T09:37:06.597Z,90.10
2023-03-06T09:39:38.291Z,90.10
2023-03-06T09:42:15.836Z,90.10
2023-03-06T09:44:50.324Z,89.30
2023-03-06T09:47:41.764Z,88.90
2023-03-06T09:50:32.716Z,87.10
2023-03-06T09:53:18.735Z,87.30
2023-03-06T09:55:57.226Z,86.70
2023-03-06T09:58:31.999Z,85.00
2023-03-06T10:01:07.098Z,84.30
2023-03-06T10:03:48.644Z,85.00
2023-03-06T10:06:27.395Z,85.30
2023-03-06T10:09:04.053Z,84.10
2023-03-06T10:11:42.076Z,83.40
2023-03-06T10:14:24.945Z,83.10
2023-03-06T10:16:56.390Z,82.00
2023-03-06T10:19:37.807Z,80.80
2023-03-06T10:22:22.419Z,80.30
2023-03-06T10:25:00.448Z,80.20
2023-03-06T10:27:42.675Z,79.60
2023-03-06T10:30:26.632Z,79.20
2023-03-06T10:33:00.979Z,78.40
2023-03-06T10:35:37.346Z,76.40
2023-03-06T10:38:21.463Z,76.10
2023-03-06T10:41:09.147Z,75.40
2023-03-06T10:43:42.839Z,75.00
2023-03-06T10:46:30.142Z,74.00
2023-03-06T10:49:03.096Z,73.90
2023-03-06T10:51:36.153Z,73.10
2023-03-06T10:54:23.311Z,72.70
2023-03-06T10:56:54.938Z,70.10
2023-03-06T10:59:28.924Z,71.50
2023-03-06T11:02:02.247Z,70.60
2023-03-06T11:04:35.939Z,69.60
2023-03-06T11:07:17.369Z,69.10
2023-03-06T11:10:04.827Z,66.80
2023-03-06T11:12:37.672Z,65.40
2023-03-06T11:15:28.045Z,67.30
2023-03-06T11:18:03.955Z,66.40
2023-03-06T11:20:51.934Z,66.50
2023-03-06T11:23:38.741Z,66.10
2023-03-06T11:26:27.677Z,66.10
2023-03-06T11:29:15.505Z,65.50
2023-03-06T11:31:52.732Z,66.10
2023-03-06T11:34:42.276Z,66.30
2023-03-06T11:37:22.379Z,65.60
2023-03-06T11:40:01.448Z,65.20
2023-03-06T11:42:40.200Z,64.80
2023-03-06T11:45:32.417Z,64.90
2023-03-06T11:48:17.872Z,64.60
2023-03-06T11:50:52.916Z,64.00
2023-03-06T11:53:26.077Z,63.80
2023-03-06T11:56:06.304Z,62.60
2023-03-06T11:58:59.150Z,62.70
2023-03-06T12:01:36.167Z,61.80
2023-03-06T12:04:36.752Z,62.70
2023-03-06T12:07:15.111Z,62.40
2023-03-06T12:09:49.832Z,59.30
2023-03-06T12:12:34.753Z,62.80
2023-03-06T12:15:20.189Z,63.30
2023-03-06T12:18:11.147Z,62.90
2023-03-06T12:20:55.916Z,63.20
2023-03-06T12:23:45.813Z,62.70
2023-03-06T12:26:34.072Z,62.60
2023-03-06T12:29:22.487Z,62.80
2023-03-06T12:32:09.598Z,63.50
2023-03-06T12:35:04.744Z,62.30
2023-03-06T12:37:47.794Z,61.70
2023-03-06T12:40:36.224Z,62.10
2023-03-06T12:43:25.892Z,61.90
2023-03-06T12:46:01.583Z,61.90
2023-03-06T12:48:39.331Z,62.30
2023-03-06T12:51:12.792Z,62.20
2023-03-06T12:53:45.315Z,62.20
2023-03-06T12:56:18.528Z,62.40
2023-03-06T12:58:55.333Z,62.20
2023-03-06T13:02:04.913Z,62.30
2023-03-06T13:04:51.160Z,61.50
2023-03-06T13:07:38.662Z,62.20
2023-03-06T13:10:18.862Z,61.40
2023-03-06T13:13:01.847Z,61.80
2023-03-06T13:15:40.780Z,60.90
2023-03-06T13:18:41.762Z,60.70
2023-03-06T13:21:46.864Z,60.10
2023-03-06T13:24:24.436Z,59.00
2023-03-06T13:26:59.515Z,60.30
2023-03-06T13:29:55.988Z,60.40
2023-03-06T13:32:35.570Z,59.90
2023-03-06T13:35:42.389Z,60.30
2023-03-06T13:38:40.146Z,60.30
2023-03-06T13:41:30.426Z,60.30
2023-03-06T13:44:03.185Z,60.00
2023-03-06T13:46:37.875Z,60.20
2023-03-06T13:49:19.505Z,60.00
2023-03-06T13:52:12.001Z,59.60
2023-03-06T13:54:55.824Z,58.90
2023-03-06T13:57:45.155Z,59.00
2023-03-06T14:00:40.671Z,58.80
2023-03-06T14:03:45.783Z,58.30
2023-03-06T14:06:49.885Z,58.50
2023-03-06T14:09:28.764Z,58.40
2023-03-06T14:12:10.452Z,59.10
2023-03-06T14:14:45.742Z,59.20
2023-03-06T14:17:27.113Z,59.60
2023-03-06T14:20:01.001Z,60.00
2023-03-06T14:22:31.821Z,60.10
2023-03-06T14:25:07.631Z,60.10
2023-03-06T14:27:46.535Z,60.40
2023-03-06T14:30:21.183Z,60.50
2023-03-06T14:32:53.670Z,60.70
2023-03-06T14:35:35.501Z,61.10
2023-03-06T14:38:09.137Z,61.10
2023-03-06T14:40:46.217Z,61.50
2023-03-06T14:43:23.552Z,61.80
2023-03-06T14:45:57.406Z,61.90
2023-03-06T14:48:39.170Z,63.00
2023-03-06T14:51:16.257Z,63.60
2023-03-06T14:53:48.840Z,63.70
2023-03-06T14:56:24.747Z,64.10
2023-03-06T14:59:01.537Z,64.60
2023-03-06T15:01:37.666Z,65.20
2023-03-06T15:04:16.677Z,65.70
2023-03-06T15:06:48.681Z,66.20
2023-03-06T15:09:24.538Z,66.90
2023-03-06T15:12:01.743Z,67.30
2023-03-06T15:14:39.767Z,67.40
2023-03-06T15:17:26.991Z,68.50
2023-03-06T15:19:59.244Z,69.70
2023-03-06T15:22:38.327Z,70.20
2023-03-06T15:25:27.003Z,71.00
2023-03-06T15:27:59.801Z,71.80
2023-03-06T15:30:35.673Z,72.10
2023-03-06T15:33:27.715Z,72.90
2023-03-06T15:36:02.079Z,73.70
2023-03-06T15:38:39.588Z,73.90
2023-03-06T15:41:24.091Z,75.10
2023-03-06T15:43:55.283Z,75.10
2023-03-06T15:46:29.741Z,75.80
2023-03-06T15:49:03.424Z,76.30
2023-03-06T15:51:35.039Z,76.40
2023-03-06T15:54:12.400Z,76.70
2023-03-06T15:56:45.823Z,77.00
2023-03-06T15:59:23.633Z,77.20
2023-03-06T16:01:57.896Z,77.40
2023-03-06T16:04:29.115Z,77.70
2023-03-06T16:06:59.970Z,77.70
2023-03-06T16:09:31.034Z,78.10
2023-03-06T16:12:02.747Z,78.30
2023-03-06T16:14:34.197Z,78.50
2023-03-06T16:17:08.491Z,79.00
2023-03-06T16:19:39.672Z,79.90
2023-03-06T16:22:11.030Z,80.70
2023-03-06T16:24:44.356Z,83.00
2023-03-06T16:27:20.507Z,82.20
2023-03-06T16:29:51.641Z,82.80
2023-03-06T16:32:27.715Z,83.10
2023-03-06T16:35:00.681Z,84.80
2023-03-06T16:37:32.104Z,83.90
2023-03-06T16:40:07.055Z,84.30
2023-03-06T16:42:38.533Z,84.80
2023-03-06T16:45:12.064Z,85.40
2023-03-06T16:47:46.379Z,85.80
2023-03-06T16:50:26.631Z,86.20
2023-03-06T16:52:58.860Z,86.70
2023-03-06T16:55:30.875Z,87.20
2023-03-06T16:58:01.742Z,87.70
2023-03-06T17:00:33.446Z,88.10
2023-03-06T17:03:07.539Z,88.60
2023-03-06T17:05:39.859Z,89.10
2023-03-06T17:08:10.692Z,90.10
2023-03-06T17:10:44.632Z,90.10
2023-03-06T17:13:15.347Z,90.30
2023-03-06T17:15:57.043Z,90.50
2023-03-06T17:18:31.428Z,90.70
2023-03-06T17:21:02.976Z,90.90
2023-03-06T17:23:34.245Z,91.10
2023-03-06T17:26:07.200Z,91.30
2023-03-06T17:28:38.728Z,91.40
2023-03-06T17:31:15.806Z,91.50
2023-03-06T17:33:49.648Z,91.70
2023-03-06T17:36:22.296Z,91.90
2023-03-06T17:38:53.033Z,92.00
2023-03-06T17:41:24.855Z,92.20
2023-03-06T17:43:55.924Z,92.30
2023-03-06T17:46:27.672Z,92.50
2023-03-06T17:49:01.640Z,92.60
2023-03-06T17:51:33.086Z,92.60
2023-03-06T17:54:04.246Z,92.80
2023-03-06T17:56:35.403Z,92.90
2023-03-06T17:59:06.034Z,93.10
2023-03-06T18:01:37.236Z,93.90
2023-03-06T18:04:10.779Z,93.40
2023-03-06T18:06:42.170Z,93.40
2023-03-06T18:09:13.091Z,93.60
2023-03-06T18:11:44.414Z,93.60
2023-03-06T18:14:15.403Z,93.80
2023-03-06T18:16:46.671Z,93.90
2023-03-06T18:19:20.743Z,93.90
2023-03-06T18:21:51.894Z,94.00
2023-03-06T18:24:23.817Z,94.20
2023-03-06T18:26:55.565Z,94.40
2023-03-06T18:29:26.446Z,94.40
2023-03-06T18:31:59.574Z,94.70
2023-03-06T18:34:33.034Z,94.50
2023-03-06T18:37:04.261Z,94.50
2023-03-06T18:39:35.190Z,94.70
2023-03-06T18:42:06.797Z,94.90
2023-03-06T18:44:37.647Z,94.90
2023-03-06T18:47:09.273Z,94.90
2023-03-06T18:49:44.264Z,95.00
2023-03-06T18:52:15.747Z,95.00
2023-03-06T18:54:48.691Z,95.10
2023-03-06T18:57:20.140Z,95.10
2023-03-06T18:59:51.010Z,95.20
2023-03-06T19:02:22.266Z,95.20
2023-03-06T19:04:56.099Z,95.30
2023-03-06T19:07:27.783Z,96.00
2023-03-06T19:09:59.451Z,95.60
2023-03-06T19:12:30.647Z,95.40
2023-03-06T19:15:02.103Z,95.50
2023-03-06T19:17:34.147Z,95.50
2023-03-06T19:20:08.424Z,95.60
2023-03-06T19:22:39.842Z,95.70
2023-03-06T19:25:12.111Z,95.60
2023-03-06T19:27:45.098Z,95.60
2023-03-06T19:30:17.220Z,95.20
2023-03-06T19:32:49.550Z,95.00
2023-03-06T19:35:23.733Z,94.90
2023-03-06T19:37:55.333Z,94.80
2023-03-06T19:40:26.199Z,94.80
2023-03-06T19:42:58.191Z,94.70
2023-03-06T19:45:29.618Z,94.80
2023-03-06T19:48:05.664Z,94.80
2023-03-06T19:50:39.268Z,94.90
2023-03-06T19:53:11.332Z,95.00
2023-03-06T19:55:42.573Z,95.00
2023-03-06T19:58:13.940Z,95.20
2023-03-06T20:00:45.139Z,95.30
2023-03-06T20:03:16.892Z,95.20
2023-03-06T20:05:53.158Z,95.30
2023-03-06T20:08:27.406Z,95.40
2023-03-06T20:10:58.317Z,95.60
2023-03-06T20:13:29.985Z,95.70
2023-03-06T20:16:04.870Z,95.60
2023-03-06T20:18:36.683Z,95.70
2023-03-06T20:21:10.589Z,95.80
2023-03-06T20:23:42.069Z,95.80
2023-03-06T20:26:15.908Z,95.80
2023-03-06T20:28:47.099Z,95.80
2023-03-06T20:31:19.405Z,95.90
2023-03-06T20:33:52.845Z,96.40
2023-03-06T20:36:29.215Z,96.20
2023-03-06T20:39:03.574Z,96.10
2023-03-06T20:41:35.404Z,96.20
2023-03-06T20:44:09.453Z,96.10
2023-03-06T20:46:40.449Z,96.10
2023-03-06T20:49:12.389Z,96.20
2023-03-06T20:51:46.353Z,96.30
2023-03-06T20:54:19.380Z,96.30
2023-03-06T20:56:51.826Z,96.30
2023-03-06T20:59:23.933Z,96.40
2023-03-06T21:01:55.216Z,96.50
2023-03-06T21:04:27.129Z,96.60
2023-03-06T21:07:00.743Z,96.50
2023-03-06T21:09:34.866Z,96.60
2023-03-06T21:12:05.722Z,96.50
2023-03-06T21:14:36.850Z,96.60
2023-03-06T21:17:07.931Z,96.60
2023-03-06T21:19:39.833Z,96.60
2023-03-06T21:22:13.911Z,96.70
2023-03-06T21:24:45.467Z,97.00
2023-03-06T21:27:16.791Z,96.90
2023-03-06T21:29:48.624Z,96.80
2023-03-06T21:32:19.505Z,96.80
2023-03-06T21:34:51.785Z,96.80
2023-03-06T21:37:25.466Z,96.70
2023-03-06T21:39:57.010Z,96.90
2023-03-06T21:42:29.661Z,97.00
2023-03-06T21:45:00.810Z,97.00
2023-03-06T21:47:31.918Z,97.10
2023-03-06T21:50:03.024Z,97.20
2023-03-06T21:52:36.374Z,97.20
2023-03-06T21:55:09.421Z,97.20
2023-03-06T21:57:40.719Z,97.20
2023-03-06T22:00:14.914Z,97.30
2023-03-06T22:02:45.993Z,97.30
2023-03-06T22:05:17.525Z,97.40
2023-03-06T22:07:52.415Z,97.40
2023-03-06T22:10:23.702Z,97.30
2023-03-06T22:12:54.135Z,97.50
2023-03-06T22:15:25.273Z,97.80
2023-03-06T22:17:56.049Z,97.60
2023-03-06T22:20:27.322Z,97.50
2023-03-06T22:23:00.776Z,97.50
2023-03-06T22:25:32.329Z,98.00
2023-03-06T22:28:03.799Z,97.80
2023-03-06T22:30:35.255Z,97.80
2023-03-06T22:33:06.903Z,97.80
2023-03-06T22:35:38.048Z,97.80
2023-03-06T22:38:11.528Z,97.80
2023-03-06T22:40:43.048Z,98.10
2023-03-06T22:43:15.305Z,97.90
2023-03-06T22:45:46.947Z,97.90
2023-03-06T22:48:17.938Z,97.90
2023-03-06T22:50:49.778Z,97.90
2023-03-06T22:53:23.191Z,97.90
2023-03-06T22:55:56.074Z,97.90
2023-03-06T22:58:27.114Z,97.90
2023-03-06T23:00:58.272Z,97.90
2023-03-06T23:03:28.698Z,97.90
2023-03-06T23:05:59.874Z,98.20
2023-03-06T23:08:33.196Z,98.00
2023-03-06T23:11:04.869Z,98.20
2023-03-06T23:13:55.916Z,98.00
2023-03-06T23:16:46.324Z,98.20
2023-03-06T23:19:36.046Z,98.20
2023-03-06T23:22:26.212Z,98.20
2023-03-06T23:25:19.446Z,98.30
2023-03-06T23:27:50.625Z,98.20
2023-03-06T23:30:21.441Z,98.10
2023-03-06T23:32:52.189Z,98.50
2023-03-06T23:35:23.085Z,98.60
2023-03-06T23:37:54.219Z,98.50
2023-03-06T23:40:29.026Z,98.50
2023-03-06T23:43:00.757Z,98.40
2023-03-06T23:45:32.155Z,98.50
2023-03-06T23:48:04.098Z,98.40
2023-03-06T23:50:35.085Z,98.40
2023-03-06T23:53:06.134Z,98.40
2023-03-06T23:55:43.220Z,98.40
2023-03-06T23:58:18.460Z,98.40
